Time;durP1;ratioP1;P1;durP2;ratioP2;P2;SDS_P1;SDS_P2;PMS_P1;PMS_P2;Temp;Humidity;BMP_temperature;BMP_pressure;BME280_temperature;BME280_humidity;BME280_pressure;Samples;Min_cycle;Max_cycle;Signal;HPM_P1;HPM_P2
2023/10/05 00:01:05;;;;;;;;;;;;;;;18.81;54.04;102169.47;5038006;28;20284;-44
2023/10/05 00:03:30;;;;;;;;;;;;;;;18.81;54.45;102159.53;5033194;28;20427;-46
2023/10/05 00:06:03;;;;;;;;;;;;;;;18.81;54.33;102166.78;5038910;28;19931;-46
2023/10/05 00:08:29;;;;;;;;;;;;;;;18.81;54.07;102161.38;5037780;28;19920;-45
2023/10/05 00:10:54;;;;;;;;;;;;;;;18.79;54.33;102166.06;5043373;28;19909;-46
2023/10/05 00:13:19;;;;;;;;;;;;;;;18.80;54.37;102160.53;5038189;28;20445;-46
2023/10/05 00:15:45;;;;;;;;;;;;;;;18.80;54.26;102157.00;5041727;28;19913;-45
2023/10/05 00:18:14;;;;;;;;;;;;;;;18.79;54.49;102164.22;5043750;28;19909;-47
2023/10/05 00:20:41;;;;;;;;;;;;;;;18.79;54.33;102155.28;5038335;28;19909;-45
2023/10/05 00:23:09;;;;;;;;;;;;;;;18.80;54.29;102162.38;5042297;28;19920;-46
2023/10/05 00:25:34;;;;;;;;;;;;;;;18.79;54.27;102166.06;5043462;28;19916;-48
2023/10/05 00:28:04;;;;;;;;;;;;;;;18.79;54.42;102174.16;5036583;28;19913;-48
2023/10/05 00:30:31;;;;;;;;;;;;;;;18.79;54.32;102166.91;5041709;28;20245;-45
2023/10/05 00:32:59;;;;;;;;;;;;;;;18.78;54.45;102170.63;5042037;28;19920;-46
2023/10/05 00:35:26;;;;;;;;;;;;;;;18.78;54.32;102169.75;5036529;28;20039;-46
2023/10/05 00:37:51;;;;;;;;;;;;;;;18.77;54.50;102162.66;5042261;28;19979;-46
2023/10/05 00:40:37;;;;;;;;;;;;;;;18.77;54.31;102160.81;5038084;28;20380;-45
2023/10/05 00:43:12;;;;;;;;;;;;;;;18.76;54.41;102167.19;5041383;28;20005;-46
2023/10/05 00:45:38;;;;;;;;;;;;;;;18.77;54.40;102152.72;5040478;28;19913;-46
2023/10/05 00:48:26;;;;;;;;;;;;;;;18.77;54.61;102154.56;5036366;28;19931;-45
2023/10/05 00:50:51;;;;;;;;;;;;;;;18.76;54.56;102166.34;5041726;28;19915;-44
2023/10/05 00:53:17;;;;;;;;;;;;;;;18.77;54.64;102165.34;5039509;28;19944;-47
2023/10/05 00:55:44;;;;;;;;;;;;;;;18.76;54.58;102167.19;5038925;28;19909;-45
2023/10/05 00:58:14;;;;;;;;;;;;;;;18.76;54.48;102156.41;5042686;28;19948;-47
2023/10/05 01:00:53;;;;;;;;;;;;;;;18.76;54.61;102150.16;5041286;28;19913;-47
2023/10/05 01:03:33;;;;;;;;;;;;;;;18.76;54.55;102155.56;5040234;28;19909;-45
2023/10/05 01:06:19;;;;;;;;;;;;;;;18.76;54.36;102160.94;5036442;28;19913;-45
2023/10/05 01:08:59;;;;;;;;;;;;;;;18.75;54.61;102152.03;5037283;28;20390;-46
2023/10/05 01:11:40;;;;;;;;;;;;;;;18.75;54.41;102146.63;5039477;28;19920;-46
2023/10/05 01:14:06;;;;;;;;;;;;;;;18.74;54.68;102136.84;5041157;28;19912;-45
2023/10/05 01:16:32;;;;;;;;;;;;;;;18.74;54.74;102147.63;5040011;28;19913;-46
2023/10/05 01:18:59;;;;;;;;;;;;;;;18.75;54.77;102143.94;5037691;28;19945;-46
2023/10/05 01:21:25;;;;;;;;;;;;;;;18.74;54.57;102142.25;5035914;28;19909;-45
2023/10/05 01:23:51;;;;;;;;;;;;;;;18.74;54.49;102131.47;5038766;28;19934;-45
2023/10/05 01:26:16;;;;;;;;;;;;;;;18.73;54.66;102136.00;5039141;28;20008;-46
2023/10/05 01:28:41;;;;;;;;;;;;;;;18.73;54.82;102127.91;5038617;28;20385;-46
2023/10/05 01:31:16;;;;;;;;;;;;;;;18.74;54.71;102136.84;5035934;28;20362;-46
2023/10/05 01:33:43;;;;;;;;;;;;;;;18.74;54.81;102136.84;5033504;28;19913;-45
2023/10/05 01:36:08;;;;;;;;;;;;;;;18.73;54.45;102136.00;5039166;28;19913;-47
2023/10/05 01:38:37;;;;;;;;;;;;;;;18.73;54.76;102133.31;5038175;28;19916;-46
2023/10/05 01:41:04;;;;;;;;;;;;;;;18.74;54.77;102144.94;5031643;28;19961;-44
2023/10/05 01:43:29;;;;;;;;;;;;;;;18.73;54.62;102141.38;5036045;28;19913;-45
2023/10/05 01:45:55;;;;;;;;;;;;;;;18.73;54.79;102141.38;5034355;28;19920;-44
2023/10/05 01:48:26;;;;;;;;;;;;;;;18.72;54.91;102136.97;5034258;28;20160;-45
2023/10/05 01:50:51;;;;;;;;;;;;;;;18.73;54.66;102136.00;5040818;28;20000;-46
2023/10/05 01:53:17;;;;;;;;;;;;;;;18.72;54.77;102139.66;5034422;28;19952;-45
2023/10/05 01:55:45;;;;;;;;;;;;;;;18.71;54.59;102132.56;5039418;28;20348;-46
2023/10/05 01:58:13;;;;;;;;;;;;;;;18.71;54.46;102131.72;5037025;28;19909;-44
2023/10/05 02:00:40;;;;;;;;;;;;;;;18.71;54.79;102132.56;5033285;28;19913;-46
2023/10/05 02:03:08;;;;;;;;;;;;;;;18.72;54.84;102134.28;5036856;28;19909;-45
2023/10/05 02:05:34;;;;;;;;;;;;;;;18.71;54.92;102129.88;5033844;28;19916;-47
2023/10/05 02:07:59;;;;;;;;;;;;;;;18.71;54.88;102129.88;5038866;28;19909;-44
2023/10/05 02:10:25;;;;;;;;;;;;;;;18.70;54.91;102124.63;5039520;28;20331;-44
2023/10/05 02:12:54;;;;;;;;;;;;;;;18.70;54.99;102121.94;5034420;28;19920;-45
2023/10/05 02:15:28;;;;;;;;;;;;;;;18.69;54.92;102121.09;5029216;28;19913;-45
2023/10/05 02:17:54;;;;;;;;;;;;;;;18.70;54.86;102119.25;5037536;28;19917;-45
2023/10/05 02:20:56;;;;;;;;;;;;;;;18.70;55.04;102122.78;5039653;28;19995;-45
2023/10/05 02:23:28;;;;;;;;;;;;;;;18.69;55.04;102114.81;5039810;28;19917;-46
2023/10/05 02:25:57;;;;;;;;;;;;;;;18.69;55.04;102118.41;5036794;28;19921;-45
2023/10/05 02:28:25;;;;;;;;;;;;;;;18.68;55.02;102113.94;5045695;28;19909;-45
2023/10/05 02:30:51;;;;;;;;;;;;;;;18.69;55.05;102113.03;5042863;28;19936;-46
2023/10/05 02:33:20;;;;;;;;;;;;;;;18.69;55.05;102117.50;5041712;28;19924;-46
2023/10/05 02:35:48;;;;;;;;;;;;;;;18.70;55.07;102121.94;5043044;28;19977;-46
2023/10/05 02:38:18;;;;;;;;;;;;;;;18.68;55.08;102113.09;5037551;28;19938;-46
2023/10/05 02:40:46;;;;;;;;;;;;;;;18.68;55.09;102113.94;5043047;28;19917;-45
2023/10/05 02:43:14;;;;;;;;;;;;;;;18.69;54.98;102106.72;5042860;28;19959;-44
2023/10/05 02:45:40;;;;;;;;;;;;;;;18.68;55.13;102113.94;5037815;28;19916;-45
2023/10/05 02:48:06;;;;;;;;;;;;;;;18.68;55.13;102119.34;5044710;28;20011;-46
2023/10/05 02:50:32;;;;;;;;;;;;;;;18.68;55.01;102115.78;5042248;28;20213;-48
2023/10/05 02:53:03;;;;;;;;;;;;;;;18.68;55.09;102118.50;5041966;28;19913;-46
2023/10/05 02:55:35;;;;;;;;;;;;;;;18.67;55.10;102109.56;5045171;28;19909;-46
2023/10/05 02:58:00;;;;;;;;;;;;;;;18.68;55.21;102115.78;5039021;28;20387;-46
2023/10/05 03:00:27;;;;;;;;;;;;;;;18.68;54.85;102113.09;5040855;28;19913;-45
2023/10/05 03:02:53;;;;;;;;;;;;;;;18.66;54.98;102105.16;5043517;28;19909;-46
2023/10/05 03:05:18;;;;;;;;;;;;;;;18.66;55.22;102104.31;5039989;28;19913;-45
2023/10/05 03:07:44;;;;;;;;;;;;;;;18.66;55.21;102102.47;5043803;28;19932;-45
2023/10/05 03:10:15;;;;;;;;;;;;;;;18.65;55.17;102105.31;5041494;28;19920;-46
2023/10/05 03:12:40;;;;;;;;;;;;;;;18.66;54.95;102104.31;5040453;28;19917;-47
2023/10/05 03:15:07;;;;;;;;;;;;;;;18.65;55.13;102108.00;5042087;28;19920;-46
2023/10/05 03:17:34;;;;;;;;;;;;;;;18.66;55.34;102115.09;5042505;28;19913;-46
2023/10/05 03:19:59;;;;;;;;;;;;;;;18.65;55.16;102108.88;5042761;28;19959;-47
2023/10/05 03:22:24;;;;;;;;;;;;;;;18.65;55.30;102102.63;5043477;28;19913;-45
2023/10/05 03:24:49;;;;;;;;;;;;;;;18.65;54.95;102108.88;5038603;28;19909;-47
2023/10/05 03:27:15;;;;;;;;;;;;;;;18.64;55.23;102120.59;5041434;28;19952;-47
2023/10/05 03:29:45;;;;;;;;;;;;;;;18.64;55.15;102117.06;5040712;28;19929;-47
2023/10/05 03:32:14;;;;;;;;;;;;;;;18.64;55.35;102108.97;5039549;28;19924;-45
2023/10/05 03:34:53;;;;;;;;;;;;;;;18.64;54.98;102114.38;5036833;28;20446;-49
2023/10/05 03:37:18;;;;;;;;;;;;;;;18.63;55.25;102109.97;5047301;28;19920;-46
2023/10/05 03:39:53;;;;;;;;;;;;;;;18.63;55.50;102118.91;5041927;28;19909;-45
2023/10/05 03:42:22;;;;;;;;;;;;;;;18.62;55.20;102114.50;5039348;28;20276;-45
2023/10/05 03:45:09;;;;;;;;;;;;;;;18.61;55.43;102110.13;5039935;28;19999;-45
2023/10/05 03:47:37;;;;;;;;;;;;;;;18.62;55.23;102113.66;5042823;28;19948;-46
2023/10/05 03:50:03;;;;;;;;;;;;;;;18.62;55.25;102108.28;5040325;28;19913;-45
2023/10/05 03:52:35;;;;;;;;;;;;;;;18.62;55.33;102113.66;5038397;28;19924;-48
2023/10/05 03:55:04;;;;;;;;;;;;;;;18.61;55.18;102111.97;5038155;28;20290;-45
2023/10/05 03:57:31;;;;;;;;;;;;;;;18.60;55.15;102111.09;5037693;28;20375;-48
2023/10/05 03:59:57;;;;;;;;;;;;;;;18.59;55.11;102112.09;5039102;28;19985;-46
2023/10/05 04:02:23;;;;;;;;;;;;;;;18.61;55.18;102117.34;5041005;28;19932;-46
2023/10/05 04:04:49;;;;;;;;;;;;;;;18.60;55.27;102126.41;5034072;28;19913;-47
2023/10/05 04:07:15;;;;;;;;;;;;;;;18.59;55.29;102128.25;5041889;28;19948;-47
2023/10/05 04:09:41;;;;;;;;;;;;;;;18.59;55.31;102122.88;5037062;28;19960;-47
2023/10/05 04:12:10;;;;;;;;;;;;;;;18.59;55.21;102132.78;5037179;28;19913;-44
2023/10/05 04:14:37;;;;;;;;;;;;;;;18.58;55.23;102131.94;5041473;28;19943;-46
2023/10/05 04:17:07;;;;;;;;;;;;;;;18.59;55.20;102138.19;5034016;28;19941;-45
2023/10/05 04:19:33;;;;;;;;;;;;;;;18.58;55.38;102145.41;5036829;28;19972;-45
2023/10/05 04:21:59;;;;;;;;;;;;;;;18.57;55.47;102140.16;5035657;28;19910;-46
2023/10/05 04:24:26;;;;;;;;;;;;;;;18.57;55.27;102135.63;5031945;28;19909;-46
2023/10/05 04:26:52;;;;;;;;;;;;;;;18.57;55.46;102140.16;5037706;28;19909;-48
2023/10/05 04:29:20;;;;;;;;;;;;;;;18.57;55.44;102134.78;5036006;28;20027;-47
2023/10/05 04:31:48;;;;;;;;;;;;;;;18.57;55.48;102137.47;5040396;28;19917;-46
2023/10/05 04:34:18;;;;;;;;;;;;;;;18.57;55.34;102134.78;5037801;28;19916;-46
2023/10/05 04:36:43;;;;;;;;;;;;;;;18.55;55.31;102132.22;5041257;28;20288;-47
2023/10/05 04:39:11;;;;;;;;;;;;;;;18.56;55.50;102138.44;5042727;28;20371;-45
2023/10/05 04:41:39;;;;;;;;;;;;;;;18.55;55.35;102134.91;5040920;28;20272;-45
2023/10/05 04:44:12;;;;;;;;;;;;;;;18.56;55.57;102138.44;5039685;28;19935;-47
2023/10/05 04:46:37;;;;;;;;;;;;;;;18.55;55.16;102140.28;5040283;28;19951;-46
2023/10/05 04:49:08;;;;;;;;;;;;;;;18.55;55.46;102134.91;5037279;28;19913;-46
2023/10/05 04:51:35;;;;;;;;;;;;;;;18.54;55.48;102132.34;5040843;28;19913;-45
2023/10/05 04:54:00;;;;;;;;;;;;;;;18.54;55.42;102135.91;5039758;28;19910;-45
2023/10/05 04:56:40;;;;;;;;;;;;;;;18.55;55.42;102136.75;5036176;28;19971;-44
2023/10/05 05:06:59;;;;;;;;;;;;;;;18.52;55.31;102145.97;5046414;28;19910;-46
2023/10/05 05:09:34;;;;;;;;;;;;;;;18.51;55.27;102151.47;5033886;28;19917;-46
2023/10/05 05:12:03;;;;;;;;;;;;;;;18.51;55.63;102157.69;5040965;28;19917;-46
2023/10/05 05:14:35;;;;;;;;;;;;;;;18.51;55.52;102154.16;5036550;28;19909;-45
2023/10/05 05:17:04;;;;;;;;;;;;;;;18.51;55.39;102146.09;5037848;28;19924;-45
2023/10/05 05:19:30;;;;;;;;;;;;;;;18.50;55.41;102142.53;5038673;28;19920;-45
2023/10/05 05:21:56;;;;;;;;;;;;;;;18.50;55.48;102147.94;5040497;28;19905;-45
2023/10/05 05:24:22;;;;;;;;;;;;;;;18.49;55.62;102149.78;5038868;28;19909;-44
2023/10/05 05:26:48;;;;;;;;;;;;;;;18.51;55.50;102148.78;5039174;28;19963;-46
2023/10/05 05:29:13;;;;;;;;;;;;;;;18.48;55.50;102153.47;5037651;28;19913;-46
2023/10/05 05:31:39;;;;;;;;;;;;;;;18.48;55.50;102158.00;5041283;28;19913;-47
2023/10/05 05:34:06;;;;;;;;;;;;;;;18.48;55.36;102149.91;5038804;28;19913;-46
2023/10/05 05:36:32;;;;;;;;;;;;;;;18.48;55.34;102158.84;5037466;28;20007;-46
2023/10/05 05:39:02;;;;;;;;;;;;;;;18.47;55.31;102150.88;5037102;28;19909;-45
2023/10/05 05:41:27;;;;;;;;;;;;;;;18.47;55.50;102149.03;5068581;28;19909;-44
2023/10/05 05:43:53;;;;;;;;;;;;;;;18.46;55.53;102152.72;5037413;28;20398;-47
2023/10/05 05:46:18;;;;;;;;;;;;;;;18.47;55.55;102154.41;5039617;28;19909;-45
2023/10/05 05:48:44;;;;;;;;;;;;;;;18.46;55.68;102162.66;5034974;28;19964;-46
2023/10/05 05:51:15;;;;;;;;;;;;;;;18.46;55.38;102154.56;5040081;28;19987;-44
2023/10/05 05:53:41;;;;;;;;;;;;;;;18.45;55.67;102167.19;5039512;28;19909;-44
2023/10/05 05:56:07;;;;;;;;;;;;;;;18.45;55.35;102159.09;5039374;28;19917;-45
2023/10/05 05:58:32;;;;;;;;;;;;;;;18.44;55.33;102168.19;5042336;28;19972;-46
2023/10/05 06:00:57;;;;;;;;;;;;;;;18.44;55.61;102165.50;5043462;28;19916;-45
2023/10/05 06:03:24;;;;;;;;;;;;;;;18.43;55.70;102169.16;5043839;28;19908;-44
2023/10/05 06:05:50;;;;;;;;;;;;;;;18.44;55.57;102168.19;5042926;28;19917;-45
2023/10/05 06:08:16;;;;;;;;;;;;;;;18.44;55.60;102175.41;5038726;28;19924;-46
2023/10/05 06:10:43;;;;;;;;;;;;;;;18.44;55.38;102168.19;5040889;28;19921;-45
2023/10/05 06:13:11;;;;;;;;;;;;;;;18.44;55.51;102168.19;5040098;28;19920;-45
2023/10/05 06:15:36;;;;;;;;;;;;;;;18.43;55.64;102171.00;5043306;28;19917;-45
2023/10/05 06:18:02;;;;;;;;;;;;;;;18.44;55.77;102187.03;5042843;28;19916;-45
2023/10/05 06:20:27;;;;;;;;;;;;;;;18.44;55.36;102181.66;5040723;28;19916;-44
2023/10/05 06:22:52;;;;;;;;;;;;;;;18.43;55.49;102189.84;5030184;28;19936;-45
2023/10/05 06:25:18;;;;;;;;;;;;;;;18.41;55.45;102184.59;5031975;28;19913;-44
2023/10/05 06:27:44;;;;;;;;;;;;;;;18.42;55.38;102185.44;5039626;28;19909;-46
2023/10/05 06:30:10;;;;;;;;;;;;;;;18.42;55.52;102189.00;5036349;28;19968;-45
2023/10/05 06:32:35;;;;;;;;;;;;;;;18.41;55.40;102192.69;5036402;28;19916;-45
2023/10/05 06:35:01;;;;;;;;;;;;;;;18.42;55.63;102194.38;5037465;28;19913;-44
2023/10/05 06:37:26;;;;;;;;;;;;;;;18.42;55.72;102194.38;5034247;28;20163;-44
2023/10/05 06:39:54;;;;;;;;;;;;;;;18.42;55.65;102190.84;5038074;28;19915;-46
2023/10/05 06:42:19;;;;;;;;;;;;;;;18.42;55.51;102183.59;5043451;28;19962;-44
2023/10/05 06:44:45;;;;;;;;;;;;;;;18.42;55.45;102189.00;5045859;28;19908;-44
2023/10/05 06:47:18;;;;;;;;;;;;;;;18.42;55.40;102202.44;5039715;28;19948;-44
2023/10/05 06:49:44;;;;;;;;;;;;;;;18.42;55.41;102207.00;5045239;28;19909;-45
2023/10/05 06:52:09;;;;;;;;;;;;;;;18.42;55.34;102202.44;5043057;28;19925;-44
2023/10/05 06:54:34;;;;;;;;;;;;;;;18.42;55.54;102204.31;5039746;28;19929;-45
2023/10/05 06:56:59;;;;;;;;;;;;;;;18.43;55.60;102211.38;5045285;28;19920;-47
2023/10/05 06:59:25;;;;;;;;;;;;;;;18.43;55.66;102208.69;5037823;28;19913;-45
2023/10/05 07:01:52;;;;;;;;;;;;;;;18.43;55.51;102214.06;5043156;28;20409;-47
2023/10/05 07:04:24;;;;;;;;;;;;;;;18.43;55.66;102214.06;5039343;28;20252;-44
2023/10/05 07:06:50;;;;;;;;;;;;;;;18.44;55.66;102210.41;5042275;28;19916;-47
2023/10/05 07:09:15;;;;;;;;;;;;;;;18.45;55.38;102217.50;5043144;28;19920;-45
2023/10/05 07:11:40;;;;;;;;;;;;;;;18.44;55.66;102218.50;5039414;28;19919;-46
2023/10/05 07:14:05;;;;;;;;;;;;;;;18.43;55.70;102214.94;5039515;28;20272;-46
2023/10/05 07:16:30;;;;;;;;;;;;;;;18.44;55.64;102221.19;5043651;28;19919;-46
2023/10/05 07:18:56;;;;;;;;;;;;;;;18.43;55.71;102225.69;5038944;28;20383;-45
2023/10/05 07:21:21;;;;;;;;;;;;;;;18.43;55.72;102223.00;5041621;28;19963;-46
2023/10/05 07:23:47;;;;;;;;;;;;;;;18.44;55.67;102231.97;5043645;28;19909;-46
2023/10/05 07:26:12;;;;;;;;;;;;;;;18.45;55.58;102230.97;5039841;28;20491;-46
2023/10/05 07:28:38;;;;;;;;;;;;;;;18.45;55.55;102239.91;5040836;28;19909;-46
2023/10/05 07:31:03;;;;;;;;;;;;;;;18.46;55.81;102244.28;5042680;28;19945;-45
2023/10/05 07:33:33;;;;;;;;;;;;;;;18.45;55.61;102247.97;5040434;28;19924;-46
2023/10/05 07:35:59;;;;;;;;;;;;;;;18.46;55.62;102256.91;5040371;28;19913;-47
2023/10/05 07:38:27;;;;;;;;;;;;;;;18.46;55.74;102263.16;5041865;28;19916;-46
2023/10/05 07:40:55;;;;;;;;;;;;;;;18.47;55.58;102255.91;5040543;28;20000;-48
2023/10/05 07:43:20;;;;;;;;;;;;;;;18.47;55.77;102251.38;5041426;28;19909;-46
2023/10/05 07:45:46;;;;;;;;;;;;;;;18.47;55.68;102258.59;5038165;28;19919;-46
2023/10/05 07:48:11;;;;;;;;;;;;;;;18.46;55.64;102263.16;5038825;28;19917;-47
2023/10/05 07:50:37;;;;;;;;;;;;;;;18.47;55.73;102256.75;5039109;28;19974;-47
2023/10/05 07:53:02;;;;;;;;;;;;;;;18.48;55.66;102260.34;5040922;28;19917;-45
2023/10/05 07:55:28;;;;;;;;;;;;;;;18.48;55.81;102254.94;5041625;28;19913;-47
2023/10/05 07:57:53;;;;;;;;;;;;;;;18.50;55.65;102261.03;5039520;28;19932;-45
2023/10/05 08:00:20;;;;;;;;;;;;;;;18.49;55.41;102268.28;5039451;28;19909;-44
2023/10/05 08:02:45;;;;;;;;;;;;;;;18.51;55.70;102278.06;5041104;28;20222;-47
2023/10/05 08:05:12;;;;;;;;;;;;;;;18.51;55.48;102268.13;5038908;28;20382;-46
2023/10/05 08:07:37;;;;;;;;;;;;;;;18.52;55.72;102285.13;5038536;28;20341;-45
2023/10/05 08:10:03;;;;;;;;;;;;;;;18.53;55.51;102281.47;5040684;28;19921;-45
2023/10/05 08:12:28;;;;;;;;;;;;;;;18.53;55.70;102284.19;5037144;28;19925;-47
2023/10/05 08:14:54;;;;;;;;;;;;;;;18.54;55.63;102291.25;5040174;28;19909;-48
2023/10/05 08:17:20;;;;;;;;;;;;;;;18.54;55.71;102292.09;5039866;28;19909;-46
2023/10/05 08:19:45;;;;;;;;;;;;;;;18.55;55.51;102298.34;5034563;28;19924;-45
2023/10/05 08:22:11;;;;;;;;;;;;;;;18.56;55.68;102297.34;5043673;28;19909;-45
2023/10/05 08:24:36;;;;;;;;;;;;;;;18.55;55.76;102296.50;5037945;28;19951;-45
2023/10/05 08:27:02;;;;;;;;;;;;;;;18.56;55.55;102294.66;5038408;28;20360;-47
2023/10/05 08:29:28;;;;;;;;;;;;;;;18.55;55.49;102293.81;5040431;28;19909;-47
2023/10/05 08:31:53;;;;;;;;;;;;;;;18.56;55.76;102303.59;5035328;28;19913;-44
2023/10/05 08:34:21;;;;;;;;;;;;;;;18.56;55.67;102311.66;5041137;28;19909;-46
2023/10/05 08:36:53;;;;;;;;;;;;;;;18.58;55.63;102308.88;5039678;28;20396;-45
2023/10/05 08:39:24;;;;;;;;;;;;;;;18.57;55.66;102307.16;5035042;28;19916;-47
2023/10/05 08:41:49;;;;;;;;;;;;;;;18.58;55.53;102308.88;5039568;28;19910;-48
2023/10/05 08:44:48;;;;;;;;;;;;;;;18.58;55.76;102307.03;5034657;28;19909;-46
2023/10/05 08:47:09;;;;;;;;;;;;;;;18.59;55.68;102305.19;5038456;28;19912;-45
2023/10/05 08:49:34;;;;;;;;;;;;;;;18.59;55.66;102305.19;5035959;28;19932;-48
2023/10/05 08:52:04;;;;;;;;;;;;;;;18.60;55.57;102306.88;5034397;28;20371;-45
2023/10/05 08:54:33;;;;;;;;;;;;;;;18.60;55.73;102320.34;5026937;28;19909;-44
2023/10/05 08:56:59;;;;;;;;;;;;;;;18.59;55.61;102319.50;5037204;28;19909;-45
2023/10/05 08:59:26;;;;;;;;;;;;;;;18.61;55.53;102311.31;5039866;28;19909;-45
2023/10/05 09:01:52;;;;;;;;;;;;;;;18.59;55.69;102310.56;5034186;28;19916;-44
2023/10/05 09:06:56;;;;;;;;;;;;;;;18.61;55.56;102317.53;5042422;28;19913;-44
2023/10/05 09:09:54;;;;;;;;;;;;;;;18.60;55.55;102321.19;5036896;28;19923;-46
2023/10/05 09:12:19;;;;;;;;;;;;;;;18.62;55.71;102323.78;5042204;28;20018;-47
2023/10/05 09:14:46;;;;;;;;;;;;;;;18.61;55.70;102328.31;5038401;28;20373;-45
2023/10/05 09:17:11;;;;;;;;;;;;;;;18.62;55.89;102332.72;5039169;28;19909;-46
2023/10/05 09:19:37;;;;;;;;;;;;;;;18.63;55.59;102325.47;5041281;28;19936;-46
2023/10/05 09:22:10;;;;;;;;;;;;;;;18.64;55.82;102338.81;5039341;28;20261;-45
2023/10/05 09:24:36;;;;;;;;;;;;;;;18.64;55.84;102337.97;5040951;28;19913;-48
2023/10/05 09:27:16;;;;;;;;;;;;;;;18.66;55.94;102344.09;5039614;28;19916;-44
2023/10/05 09:29:41;;;;;;;;;;;;;;;18.67;55.67;102352.03;5036903;28;19909;-47
2023/10/05 09:32:08;;;;;;;;;;;;;;;18.67;55.61;102352.03;5037970;28;19940;-47
2023/10/05 09:34:34;;;;;;;;;;;;;;;18.69;55.63;102360.88;5039105;28;20391;-47
2023/10/05 09:37:02;;;;;;;;;;;;;;;18.71;55.63;102364.28;5034649;28;19913;-45
2023/10/05 09:39:27;;;;;;;;;;;;;;;18.72;55.62;102359.75;5041389;28;19944;-45
2023/10/05 09:41:52;;;;;;;;;;;;;;;18.74;55.50;102365.88;5036996;28;19964;-46
2023/10/05 09:44:18;;;;;;;;;;;;;;;18.73;55.57;102370.41;5035897;28;19959;-47
2023/10/05 09:46:43;;;;;;;;;;;;;;;18.75;55.44;102381.03;5042320;28;19914;-46
2023/10/05 09:49:09;;;;;;;;;;;;;;;18.77;55.56;102380.88;5036939;28;19920;-45
2023/10/05 09:51:35;;;;;;;;;;;;;;;18.76;55.35;102377.34;5038748;28;20207;-45
2023/10/05 09:54:01;;;;;;;;;;;;;;;18.77;55.40;102373.66;5070853;28;19924;-46
2023/10/05 09:56:26;;;;;;;;;;;;;;;18.78;55.83;102375.38;5070638;28;19912;-46
2023/10/05 09:58:53;;;;;;;;;;;;;;;18.79;55.48;102369.00;5040279;28;20012;-44
2023/10/05 10:01:22;;;;;;;;;;;;;;;18.78;55.83;102370.00;5037829;28;19916;-44
2023/10/05 10:03:48;;;;;;;;;;;;;;;18.79;55.78;102365.47;5064150;28;19909;-45
2023/10/05 10:06:18;;;;;;;;;;;;;;;18.78;55.81;102367.31;5040265;28;19909;-44
2023/10/05 10:08:53;;;;;;;;;;;;;;;18.79;55.73;102363.63;5066645;28;20009;-46
2023/10/05 10:11:19;;;;;;;;;;;;;;;18.79;55.93;102358.22;5067073;28;19960;-46
2023/10/05 10:14:14;;;;;;;;;;;;;;;18.80;56.04;102361.78;5039483;28;20312;-46
2023/10/05 10:16:42;;;;;;;;;;;;;;;18.80;55.87;102356.38;5036429;28;19914;-45
2023/10/05 10:19:19;;;;;;;;;;;;;;;18.80;56.13;102365.31;5038587;28;19993;-48
2023/10/05 10:21:46;;;;;;;;;;;;;;;18.80;55.98;102357.22;5037794;28;19924;-46
2023/10/05 10:24:14;;;;;;;;;;;;;;;18.81;56.30;102366.16;5036421;28;19909;-44
2023/10/05 10:26:53;;;;;;;;;;;;;;;18.80;55.94;102351.00;5041100;28;19913;-46
2023/10/05 10:29:22;;;;;;;;;;;;;;;18.80;56.24;102359.94;5040826;28;19913;-46
2023/10/05 10:32:07;;;;;;;;;;;;;;;18.81;56.45;102358.09;5037165;28;19921;-46
2023/10/05 10:34:42;;;;;;;;;;;;;;;18.81;56.33;102360.78;5035055;28;19913;-44
2023/10/05 10:37:09;;;;;;;;;;;;;;;18.81;56.46;102364.31;5038555;28;19909;-45
2023/10/05 10:39:37;;;;;;;;;;;;;;;18.82;56.57;102365.19;5039298;28;19909;-47
2023/10/05 10:42:07;;;;;;;;;;;;;;;18.82;56.69;102366.06;5042038;28;20059;-45
2023/10/05 10:47:16;;;;;;;;;;;;;;;18.82;56.67;102368.75;5048275;28;19944;-47
2023/10/05 10:49:44;;;;;;;;;;;;;;;18.83;56.78;102375.84;5036047;28;19909;-45
2023/10/05 10:52:10;;;;;;;;;;;;;;;18.84;56.70;102366.75;5072127;28;19984;-44
2023/10/05 10:54:40;;;;;;;;;;;;;;;18.84;56.75;102366.75;5038098;28;19932;-46
2023/10/05 10:57:06;;;;;;;;;;;;;;;18.84;56.79;102369.47;5042396;28;19908;-47
2023/10/05 10:59:41;;;;;;;;;;;;;;;18.86;56.76;102369.31;5035621;28;19916;-47
2023/10/05 11:02:11;;;;;;;;;;;;;;;18.86;56.96;102372.00;5039061;28;19973;-46
2023/10/05 11:04:39;;;;;;;;;;;;;;;18.87;56.93;102384.53;5034815;28;20008;-47
2023/10/05 11:07:07;;;;;;;;;;;;;;;18.86;56.77;102394.44;5037768;28;19964;-45
2023/10/05 11:09:54;;;;;;;;;;;;;;;18.87;56.84;102377.28;5042518;28;20008;-46
2023/10/05 11:12:21;;;;;;;;;;;;;;;18.87;57.29;102381.81;5042461;28;19957;-48
2023/10/05 11:14:46;;;;;;;;;;;;;;;18.87;57.05;102382.69;5041016;28;19913;-46
2023/10/05 11:17:45;;;;;;;;;;;;;;;18.88;57.30;102379.00;5045022;28;19916;-45
2023/10/05 11:20:23;;;;;;;;;;;;;;;18.87;57.12;102379.97;5042191;28;19924;-44
2023/10/05 11:22:48;;;;;;;;;;;;;;;18.88;57.31;102380.84;5043481;28;19959;-45
2023/10/05 11:25:16;;;;;;;;;;;;;;;18.88;57.40;102373.59;5042882;28;19909;-44
2023/10/05 11:27:48;;;;;;;;;;;;;;;18.88;57.43;102375.44;5038895;28;19944;-47
2023/10/05 11:30:18;;;;;;;;;;;;;;;18.89;57.29;102369.06;5043164;28;19976;-48
2023/10/05 11:32:56;;;;;;;;;;;;;;;18.89;57.23;102382.53;5039442;28;19925;-47
2023/10/05 11:35:42;;;;;;;;;;;;;;;18.89;57.35;102386.06;5040505;28;19913;-46
2023/10/05 11:38:07;;;;;;;;;;;;;;;18.89;57.50;102375.31;5043790;28;19916;-44
2023/10/05 11:40:35;;;;;;;;;;;;;;;18.90;57.44;102376.16;5036820;28;19932;-46
2023/10/05 11:43:04;;;;;;;;;;;;;;;18.90;57.37;102378.84;5073595;28;19916;-44
2023/10/05 11:45:30;;;;;;;;;;;;;;;18.90;57.45;102371.63;5042113;28;20003;-45
2023/10/05 11:47:56;;;;;;;;;;;;;;;18.91;57.37;102378.72;5042037;28;19909;-46
2023/10/05 11:50:25;;;;;;;;;;;;;;;18.91;57.28;102376.03;5040962;28;19916;-48
2023/10/05 11:52:53;;;;;;;;;;;;;;;18.92;57.48;102364.25;5039375;28;19913;-47
2023/10/05 11:55:19;;;;;;;;;;;;;;;18.93;57.45;102368.66;5039854;28;19909;-45
2023/10/05 11:57:44;;;;;;;;;;;;;;;18.94;57.63;102361.41;5042147;28;19914;-47
2023/10/05 12:00:12;;;;;;;;;;;;;;;18.94;57.49;102364.13;5039669;28;19996;-47
2023/10/05 12:02:37;;;;;;;;;;;;;;;18.95;57.32;102357.75;5038500;28;19910;-47
2023/10/05 12:05:03;;;;;;;;;;;;;;;18.95;57.41;102374.78;5039167;28;19944;-45
2023/10/05 12:07:28;;;;;;;;;;;;;;;18.95;57.45;102373.94;5040170;28;20100;-45
2023/10/05 12:09:54;;;;;;;;;;;;;;;18.96;57.30;102368.41;5040293;28;19925;-46
2023/10/05 12:12:20;;;;;;;;;;;;;;;18.97;57.37;102361.16;5040919;28;20428;-46
2023/10/05 12:14:45;;;;;;;;;;;;;;;18.97;57.26;102359.31;5038575;28;19963;-48
2023/10/05 12:17:10;;;;;;;;;;;;;;;18.97;57.36;102362.00;5043589;28;19916;-49
2023/10/05 12:19:35;;;;;;;;;;;;;;;18.98;57.51;102371.81;5038293;28;19977;-48
2023/10/05 12:22:06;;;;;;;;;;;;;;;19.00;57.44;102373.53;5042269;28;19908;-45
2023/10/05 12:24:33;;;;;;;;;;;;;;;18.98;57.49;102366.41;5044040;28;19913;-50
2023/10/05 12:26:59;;;;;;;;;;;;;;;19.00;57.50;102373.53;5038291;28;19909;-46
2023/10/05 12:29:24;;;;;;;;;;;;;;;19.01;57.62;102375.22;5038472;28;19952;-45
2023/10/05 12:31:50;;;;;;;;;;;;;;;19.00;57.46;102360.91;5038882;28;19913;-46
2023/10/05 12:34:15;;;;;;;;;;;;;;;19.01;57.66;102367.16;5035050;28;19913;-45
2023/10/05 12:36:41;;;;;;;;;;;;;;;19.01;57.41;102368.00;5038823;28;19923;-48
2023/10/05 12:39:11;;;;;;;;;;;;;;;19.02;57.48;102366.16;5037094;28;19909;-47
2023/10/05 12:41:42;;;;;;;;;;;;;;;19.02;57.46;102371.53;5035463;28;20359;-47
2023/10/05 12:44:09;;;;;;;;;;;;;;;19.02;57.67;102372.38;5036831;28;19909;-44
2023/10/05 12:46:39;;;;;;;;;;;;;;;19.02;57.53;102364.31;5036623;28;20106;-45
2023/10/05 12:49:08;;;;;;;;;;;;;;;19.03;57.36;102367.84;5066840;28;19910;-45
2023/10/05 12:51:36;;;;;;;;;;;;;;;19.02;57.30;102367.00;5041797;28;20426;-46
2023/10/05 12:54:08;;;;;;;;;;;;;;;19.02;57.50;102372.38;5034643;28;19913;-46